createdAt,value
2022-08-29T00:01:08.926Z,100.00
2022-08-29T00:03:40.769Z,100.00
2022-08-29T00:06:11.917Z,100.00
2022-08-29T00:08:42.429Z,100.00
2022-08-29T00:11:15.804Z,100.00
2022-08-29T00:13:46.154Z,100.00
2022-08-29T00:16:16.533Z,100.00
2022-08-29T00:18:47.446Z,100.00
2022-08-29T00:21:17.702Z,100.00
2022-08-29T00:23:48.127Z,100.00
2022-08-29T00:26:18.488Z,100.00
2022-08-29T00:28:49.029Z,100.00
2022-08-29T00:31:19.316Z,100.00
2022-08-29T00:33:51.648Z,100.00
2022-08-29T00:36:23.236Z,100.00
2022-08-29T00:38:53.736Z,100.00
2022-08-29T00:41:23.997Z,100.00
2022-08-29T00:43:54.177Z,100.00
2022-08-29T00:46:35.016Z,100.00
2022-08-29T00:49:06.866Z,100.00
2022-08-29T00:51:37.857Z,100.00
2022-08-29T00:54:11.976Z,100.00
2022-08-29T00:56:43.707Z,100.00
2022-08-29T00:59:17.228Z,100.00
2022-08-29T01:01:47.747Z,100.00
2022-08-29T01:04:24.104Z,100.00
2022-08-29T01:06:55.678Z,100.00
2022-08-29T01:09:26.718Z,100.00
2022-08-29T01:12:14.618Z,100.00
2022-08-29T01:14:48.366Z,100.00
2022-08-29T01:17:21.276Z,100.00
2022-08-29T01:19:54.598Z,100.00
2022-08-29T01:22:43.276Z,100.00
2022-08-29T01:25:16.598Z,100.00
2022-08-29T01:27:50.486Z,100.00
2022-08-29T01:30:20.956Z,100.00
2022-08-29T01:32:54.058Z,100.00
2022-08-29T01:35:25.138Z,100.00
2022-08-29T01:37:55.760Z,100.00
2022-08-29T01:40:30.800Z,100.00
2022-08-29T01:43:01.476Z,100.00
2022-08-29T01:45:32.049Z,100.00
2022-08-29T01:48:03.754Z,100.00
2022-08-29T01:50:34.236Z,100.00
2022-08-29T01:53:04.616Z,100.00
2022-08-29T01:55:35.086Z,100.00
2022-08-29T01:58:05.447Z,100.00
2022-08-29T02:00:39.028Z,100.00
2022-08-29T02:03:09.549Z,100.00
2022-08-29T02:05:39.940Z,100.00
2022-08-29T02:08:10.520Z,100.00
2022-08-29T02:10:41.190Z,100.00
2022-08-29T02:13:12.098Z,100.00
2022-08-29T02:15:43.076Z,100.00
2022-08-29T02:18:13.581Z,100.00
2022-08-29T02:20:45.720Z,100.00
2022-08-29T02:23:30.252Z,100.00
2022-08-29T02:26:01.696Z,100.00
2022-08-29T02:28:32.158Z,100.00
2022-08-29T02:31:02.611Z,100.00
2022-08-29T02:33:33.358Z,100.00
2022-08-29T02:36:04.782Z,100.00
2022-08-29T02:38:35.276Z,100.00
2022-08-29T02:41:05.849Z,100.00
2022-08-29T02:43:43.258Z,100.00
2022-08-29T02:46:17.643Z,100.00
2022-08-29T02:48:59.945Z,100.00
2022-08-29T02:51:33.136Z,100.00
2022-08-29T02:54:04.118Z,100.00
2022-08-29T02:56:34.696Z,100.00
2022-08-29T02:59:05.558Z,100.00
2022-08-29T03:01:38.903Z,100.00
2022-08-29T03:04:09.449Z,100.00
2022-08-29T03:06:39.736Z,100.00
2022-08-29T03:09:10.249Z,100.00
2022-08-29T03:11:40.639Z,100.00
2022-08-29T03:14:11.077Z,100.00
2022-08-29T03:16:41.280Z,100.00
2022-08-29T03:19:11.786Z,100.00
2022-08-29T03:21:42.116Z,100.00
2022-08-29T03:24:12.878Z,100.00
2022-08-29T03:26:43.339Z,100.00
2022-08-29T03:29:13.736Z,100.00
2022-08-29T03:31:44.260Z,100.00
2022-08-29T03:34:15.498Z,100.00
2022-08-29T03:36:46.176Z,100.00
2022-08-29T03:39:16.559Z,100.00
2022-08-29T03:41:46.958Z,100.00
2022-08-29T03:44:17.238Z,100.00
2022-08-29T03:46:47.707Z,100.00
2022-08-29T03:49:18.177Z,100.00
2022-08-29T03:51:50.388Z,100.00
2022-08-29T03:54:20.797Z,100.00
2022-08-29T03:56:51.516Z,100.00
2022-08-29T03:59:21.887Z,100.00
2022-08-29T04:01:52.264Z,100.00
2022-08-29T04:04:40.349Z,100.00
2022-08-29T04:07:13.467Z,100.00
2022-08-29T04:09:44.137Z,100.00
2022-08-29T04:12:14.978Z,100.00
2022-08-29T04:14:45.707Z,100.00
2022-08-29T04:17:16.557Z,100.00
2022-08-29T04:19:47.059Z,100.00
2022-08-29T04:22:17.477Z,100.00
2022-08-29T04:24:47.921Z,100.00
2022-08-29T04:27:18.789Z,100.00
2022-08-29T04:29:49.659Z,100.00
2022-08-29T04:32:20.588Z,100.00
2022-08-29T04:34:51.086Z,100.00
2022-08-29T04:37:21.326Z,100.00
2022-08-29T04:39:51.957Z,100.00
2022-08-29T04:42:22.337Z,100.00
2022-08-29T04:44:52.688Z,100.00
2022-08-29T04:47:23.139Z,100.00
2022-08-29T04:49:57.078Z,100.00
2022-08-29T04:52:28.838Z,100.00
2022-08-29T04:54:59.178Z,100.00
2022-08-29T04:57:29.548Z,100.00
2022-08-29T05:00:00.810Z,100.00
2022-08-29T05:02:32.381Z,100.00
2022-08-29T05:05:05.144Z,100.00
2022-08-29T05:07:38.399Z,100.00
2022-08-29T05:10:10.876Z,100.00
2022-08-29T05:12:42.208Z,100.00
2022-08-29T05:15:14.157Z,100.00
2022-08-29T05:17:45.577Z,100.00
2022-08-29T05:20:17.446Z,100.00
2022-08-29T05:22:49.184Z,100.00
2022-08-29T05:25:19.658Z,100.00
2022-08-29T05:27:51.886Z,100.00
2022-08-29T05:30:34.471Z,100.00
2022-08-29T05:33:06.736Z,100.00
2022-08-29T05:35:39.481Z,100.00
2022-08-29T05:38:13.138Z,100.00
2022-08-29T05:40:44.216Z,100.00
2022-08-29T05:43:16.408Z,100.00
2022-08-29T05:45:46.785Z,100.00
2022-08-29T05:48:18.747Z,100.00
2022-08-29T05:50:51.724Z,100.00
2022-08-29T05:53:22.546Z,100.00
2022-08-29T05:55:52.997Z,100.00
2022-08-29T05:58:23.676Z,100.00
2022-08-29T06:00:53.990Z,100.00
2022-08-29T06:03:24.896Z,100.00
2022-08-29T06:05:55.377Z,100.00
2022-08-29T06:08:25.896Z,100.00
2022-08-29T06:12:38.546Z,100.00
2022-08-29T06:15:09.886Z,100.00
2022-08-29T06:19:55.028Z,100.00
2022-08-29T06:22:27.456Z,100.00
2022-08-29T06:25:27.975Z,100.00
2022-08-29T06:27:58.524Z,100.00
2022-08-29T06:30:32.196Z,100.00
2022-08-29T06:33:05.110Z,100.00
2022-08-29T06:35:37.976Z,100.00
2022-08-29T06:38:13.903Z,100.00
2022-08-29T06:40:46.895Z,100.00
2022-08-29T06:43:20.846Z,100.00
2022-08-29T06:45:53.264Z,100.00
2022-08-29T06:48:29.372Z,100.00
2022-08-29T06:51:04.367Z,100.00
2022-08-29T06:53:37.355Z,100.00
2022-08-29T06:56:11.541Z,100.00
2022-08-29T06:58:45.005Z,100.00
2022-08-29T07:01:21.935Z,100.00
2022-08-29T07:03:57.672Z,100.00
2022-08-29T07:06:32.688Z,100.00
2022-08-29T07:09:05.318Z,100.00
2022-08-29T07:11:41.224Z,100.00
2022-08-29T07:14:15.058Z,100.00
2022-08-29T07:16:48.976Z,100.00
2022-08-29T07:19:24.128Z,100.00
2022-08-29T07:21:59.117Z,100.00
2022-08-29T07:24:31.796Z,100.00
2022-08-29T07:27:04.468Z,100.00
2022-08-29T07:29:37.406Z,100.00
2022-08-29T07:32:10.229Z,100.00
2022-08-29T07:34:44.348Z,100.00
2022-08-29T07:37:19.232Z,100.00
2022-08-29T07:39:55.680Z,100.00
2022-08-29T07:42:28.166Z,100.00
2022-08-29T07:45:02.034Z,100.00
2022-08-29T07:47:35.048Z,100.00
2022-08-29T07:50:09.687Z,100.00
2022-08-29T07:52:42.037Z,100.00
2022-08-29T07:55:16.416Z,100.00
2022-08-29T07:57:51.896Z,100.00
2022-08-29T08:00:24.895Z,100.00
2022-08-29T08:02:59.510Z,100.00
2022-08-29T08:05:32.276Z,100.00
2022-08-29T08:08:15.115Z,100.00
2022-08-29T08:10:52.299Z,100.00
2022-08-29T08:13:29.778Z,100.00
2022-08-29T08:16:05.269Z,100.00
2022-08-29T08:18:38.626Z,100.00
2022-08-29T08:21:12.038Z,100.00
2022-08-29T08:23:45.478Z,100.00
2022-08-29T08:26:18.459Z,100.00
2022-08-29T08:28:53.683Z,100.00
2022-08-29T08:31:28.298Z,100.00
2022-08-29T08:34:00.798Z,100.00
2022-08-29T08:36:40.979Z,100.00
2022-08-29T08:39:15.015Z,100.00
2022-08-29T08:41:57.658Z,100.00
2022-08-29T08:45:00.668Z,100.00
2022-08-29T08:47:36.868Z,100.00
2022-08-29T08:50:13.579Z,100.00
2022-08-29T08:52:52.308Z,100.00
2022-08-29T08:55:35.176Z,100.00
2022-08-29T08:58:16.037Z,100.00
2022-08-29T09:00:54.522Z,100.00
2022-08-29T09:03:51.447Z,100.00
2022-08-29T09:06:43.428Z,100.00
2022-08-29T09:09:27.062Z,100.00
2022-08-29T09:12:09.291Z,100.00
2022-08-29T09:14:56.869Z,99.99
2022-08-29T09:17:37.368Z,100.00
2022-08-29T09:20:15.088Z,99.64
2022-08-29T09:22:54.054Z,99.79
2022-08-29T09:25:30.527Z,100.00
2022-08-29T09:28:03.532Z,99.99
2022-08-29T09:30:37.948Z,100.00
2022-08-29T09:33:15.409Z,99.80
2022-08-29T09:35:52.773Z,99.83
2022-08-29T09:38:29.107Z,97.78
2022-08-29T09:41:04.236Z,97.02
2022-08-29T09:43:50.587Z,97.57
2022-08-29T09:46:25.887Z,100.00
2022-08-29T09:49:16.148Z,98.85
2022-08-29T09:51:50.808Z,100.00
2022-08-29T09:54:31.576Z,99.52
2022-08-29T09:57:10.824Z,98.22
2022-08-29T09:59:45.508Z,96.97
2022-08-29T10:02:29.555Z,98.69
2022-08-29T10:05:12.020Z,100.00
2022-08-29T10:07:53.618Z,100.00
2022-08-29T10:10:31.016Z,97.19
2022-08-29T10:13:10.746Z,96.65
2022-08-29T10:15:58.000Z,95.14
2022-08-29T10:18:43.341Z,93.47
2022-08-29T10:21:36.398Z,92.76
2022-08-29T10:24:26.649Z,92.56
2022-08-29T10:27:06.903Z,94.03
2022-08-29T10:29:56.808Z,94.53
2022-08-29T10:32:46.358Z,90.98
2022-08-29T10:35:26.328Z,90.14
2022-08-29T10:38:07.366Z,90.40
2022-08-29T10:41:41.601Z,89.52
2022-08-29T10:45:25.922Z,90.98
2022-08-29T10:49:04.528Z,92.30
2022-08-29T10:52:40.316Z,91.52
2022-08-29T10:56:22.939Z,89.85
2022-08-29T11:00:03.037Z,87.38
2022-08-29T11:03:59.083Z,87.36
2022-08-29T11:07:37.208Z,89.82
2022-08-29T11:11:37.463Z,88.35
2022-08-29T11:18:22.296Z,89.31
2022-08-29T11:22:02.949Z,86.71
2022-08-29T11:25:42.309Z,87.81
2022-08-29T11:39:41.200Z,89.94
2022-08-29T11:43:20.086Z,84.78
2022-08-29T11:46:56.888Z,86.20
2022-08-29T11:50:37.458Z,82.65
2022-08-29T12:09:38.277Z,80.71
2022-08-29T12:13:12.338Z,82.03
2022-08-29T12:16:53.764Z,82.81
2022-08-29T12:20:33.965Z,82.45
2022-08-29T12:24:09.588Z,82.71
2022-08-29T12:28:08.724Z,81.12
2022-08-29T12:41:59.026Z,81.01
2022-08-29T12:45:33.218Z,77.87
2022-08-29T12:49:29.271Z,76.54
2022-08-29T12:53:09.558Z,75.97
2022-08-29T13:00:20.721Z,73.84
2022-08-29T13:04:04.617Z,72.22
2022-08-29T13:07:36.178Z,73.58
2022-08-29T13:11:13.879Z,72.45
2022-08-29T13:14:47.623Z,72.63
2022-08-29T13:46:17.285Z,71.87
2022-08-29T13:49:52.308Z,72.72
2022-08-29T13:53:25.437Z,72.15
2022-08-29T13:57:01.214Z,72.86
2022-08-29T14:14:12.466Z,71.38
2022-08-29T14:17:38.136Z,72.71
2022-08-29T14:21:11.599Z,69.95
2022-08-29T14:24:53.330Z,71.59
2022-08-29T14:28:26.506Z,71.65
2022-08-29T14:31:50.107Z,73.22
2022-08-29T14:35:09.148Z,71.33
2022-08-29T14:38:35.996Z,71.13
2022-08-29T14:42:02.216Z,72.24
2022-08-29T14:45:35.659Z,72.09
2022-08-29T14:49:08.602Z,71.32
2022-08-29T14:52:41.577Z,71.96
2022-08-29T14:56:37.217Z,74.15
2022-08-29T15:00:15.652Z,73.43
2022-08-29T15:17:06.128Z,72.21
2022-08-29T15:20:42.519Z,73.56
2022-08-29T15:24:18.286Z,71.41
2022-08-29T15:27:44.307Z,73.96
2022-08-29T15:31:17.729Z,73.81
2022-08-29T15:34:47.849Z,73.49
2022-08-29T15:58:13.471Z,75.54
2022-08-29T16:01:41.217Z,74.56
2022-08-29T16:05:14.728Z,75.46
2022-08-29T16:09:01.936Z,74.71
2022-08-29T16:19:11.116Z,78.61
2022-08-29T16:22:44.927Z,78.99
2022-08-29T16:26:09.953Z,78.71
2022-08-29T16:29:42.986Z,78.19
2022-08-29T17:07:16.076Z,85.11
2022-08-29T17:10:49.056Z,85.20
2022-08-29T17:14:24.078Z,86.31
2022-08-29T17:17:57.047Z,86.13
2022-08-29T17:21:32.636Z,86.13
2022-08-29T17:25:08.018Z,86.48
2022-08-29T17:28:42.256Z,86.85
2022-08-29T17:32:17.676Z,86.80
2022-08-29T17:56:22.377Z,90.15
2022-08-29T17:59:56.352Z,92.91
2022-08-29T18:03:26.967Z,94.49
2022-08-29T18:20:20.608Z,96.07
2022-08-29T18:24:00.843Z,97.76
2022-08-29T18:27:46.056Z,99.08
2022-08-29T18:31:43.220Z,99.58
2022-08-29T18:35:21.138Z,100.00
2022-08-29T19:06:11.968Z,99.83
2022-08-29T19:09:45.568Z,100.00
2022-08-29T19:13:32.706Z,100.00
2022-08-29T19:27:33.024Z,100.00
2022-08-29T19:31:11.002Z,100.00
2022-08-29T19:34:54.150Z,100.00
2022-08-29T19:59:04.599Z,100.00
2022-08-29T20:02:41.192Z,100.00
2022-08-29T20:06:18.281Z,100.00
2022-08-29T20:10:32.307Z,100.00
2022-08-29T20:20:34.937Z,100.00
2022-08-29T20:24:11.340Z,100.00
2022-08-29T20:27:49.309Z,100.00
2022-08-29T20:41:15.600Z,100.00
2022-08-29T20:44:58.119Z,100.00
2022-08-29T20:48:31.482Z,100.00
2022-08-29T20:52:06.598Z,100.00
2022-08-29T20:55:41.387Z,100.00
2022-08-29T21:02:09.300Z,100.00
2022-08-29T21:05:48.127Z,100.00
2022-08-29T21:09:14.345Z,100.00
2022-08-29T21:22:37.126Z,100.00
2022-08-29T21:26:13.189Z,100.00
2022-08-29T21:29:48.296Z,100.00
2022-08-29T21:39:48.229Z,100.00
2022-08-29T21:43:21.717Z,100.00
2022-08-29T21:49:53.439Z,100.00
2022-08-29T21:53:26.665Z,100.00
2022-08-29T21:56:59.855Z,100.00
2022-08-29T22:03:58.198Z,100.00
2022-08-29T22:07:33.468Z,100.00
2022-08-29T22:11:14.021Z,100.00
2022-08-29T22:15:03.403Z,100.00
2022-08-29T22:18:36.620Z,100.00
2022-08-29T22:22:09.918Z,100.00
2022-08-29T22:25:43.019Z,100.00
2022-08-29T22:42:28.048Z,100.00
2022-08-29T22:46:02.099Z,100.00
2022-08-29T22:49:35.287Z,100.00
2022-08-29T22:53:09.107Z,100.00
2022-08-29T23:06:38.108Z,100.00
2022-08-29T23:10:13.754Z,100.00
2022-08-29T23:13:50.978Z,100.00
2022-08-29T23:24:03.947Z,100.00
2022-08-29T23:27:35.318Z,100.00
2022-08-29T23:31:05.681Z,100.00
2022-08-29T23:34:36.716Z,100.00
2022-08-29T23:44:32.715Z,100.00
2022-08-29T23:48:07.346Z,100.00
2022-08-29T23:51:44.475Z,100.00
2022-08-29T23:55:18.698Z,100.00
2022-08-29T23:58:51.898Z,100.00
